sensor_id;sensor_type;location;lat;lon;timestamp;pressure;altitude;pressure_sealevel;temperature;humidity
12781;BME280;6454;43.304;24.344;2024-03-29T00:00:35;99885.38;;;10.28;66.88
12781;BME280;6454;43.304;24.344;2024-03-29T00:03:00;99878.06;;;10.15;67.00
12781;BME280;6454;43.304;24.344;2024-03-29T00:05:26;99878.50;;;10.08;67.46
12781;BME280;6454;43.304;24.344;2024-03-29T00:07:51;99874.63;;;10.09;67.63
12781;BME280;6454;43.304;24.344;2024-03-29T00:10:20;99877.16;;;9.97;67.33
12781;BME280;6454;43.304;24.344;2024-03-29T00:12:45;99880.66;;;9.81;67.58
12781;BME280;6454;43.304;24.344;2024-03-29T00:15:10;99879.06;;;9.88;67.81
12781;BME280;6454;43.304;24.344;2024-03-29T00:17:36;99867.81;;;9.68;67.92
12781;BME280;6454;43.304;24.344;2024-03-29T00:20:01;99876.19;;;9.63;68.69
12781;BME280;6454;43.304;24.344;2024-03-29T00:22:28;99861.25;;;9.46;68.96
12781;BME280;6454;43.304;24.344;2024-03-29T00:24:54;99882.28;;;9.59;69.30
12781;BME280;6454;43.304;24.344;2024-03-29T00:27:19;99881.00;;;9.57;68.92
12781;BME280;6454;43.304;24.344;2024-03-29T00:29:45;99881.66;;;9.63;67.92
12781;BME280;6454;43.304;24.344;2024-03-29T00:32:12;99868.16;;;9.44;68.37
12781;BME280;6454;43.304;24.344;2024-03-29T00:34:38;99871.47;;;9.32;68.99
12781;BME280;6454;43.304;24.344;2024-03-29T00:37:03;99854.31;;;9.18;68.69
12781;BME280;6454;43.304;24.344;2024-03-29T00:39:29;99874.28;;;9.19;69.94
12781;BME280;6454;43.304;24.344;2024-03-29T00:41:54;99876.16;;;9.10;70.78
12781;BME280;6454;43.304;24.344;2024-03-29T00:44:21;99878.72;;;9.06;70.28
12781;BME280;6454;43.304;24.344;2024-03-29T00:46:46;99885.31;;;9.05;70.67
12781;BME280;6454;43.304;24.344;2024-03-29T00:49:12;99887.22;;;9.18;69.92
12781;BME280;6454;43.304;24.344;2024-03-29T00:51:38;99883.66;;;9.18;69.96
12781;BME280;6454;43.304;24.344;2024-03-29T00:54:04;99893.16;;;8.98;69.59
12781;BME280;6454;43.304;24.344;2024-03-29T00:56:30;99891.78;;;8.87;71.00
12781;BME280;6454;43.304;24.344;2024-03-29T00:58:55;99904.38;;;8.88;70.37
12781;BME280;6454;43.304;24.344;2024-03-29T01:01:21;99896.06;;;8.79;69.96
12781;BME280;6454;43.304;24.344;2024-03-29T01:03:46;99901.31;;;8.89;70.54
12781;BME280;6454;43.304;24.344;2024-03-29T01:06:12;99882.38;;;8.79;70.30
12781;BME280;6454;43.304;24.344;2024-03-29T01:08:37;99886.66;;;8.72;71.50
12781;BME280;6454;43.304;24.344;2024-03-29T01:11:03;99897.88;;;8.84;71.06
12781;BME280;6454;43.304;24.344;2024-03-29T01:13:29;99880.75;;;8.65;70.18
12781;BME280;6454;43.304;24.344;2024-03-29T01:15:54;99918.56;;;8.90;69.41
12781;BME280;6454;43.304;24.344;2024-03-29T01:18:20;99914.75;;;8.77;70.59
12781;BME280;6454;43.304;24.344;2024-03-29T01:20:45;99917.41;;;8.69;70.49
12781;BME280;6454;43.304;24.344;2024-03-29T01:23:10;99920.75;;;8.66;70.77
12781;BME280;6454;43.304;24.344;2024-03-29T01:25:36;99930.69;;;8.62;71.18
12781;BME280;6454;43.304;24.344;2024-03-29T01:28:02;99936.97;;;8.62;70.42
12781;BME280;6454;43.304;24.344;2024-03-29T01:30:28;99937.56;;;8.59;71.42
12781;BME280;6454;43.304;24.344;2024-03-29T01:32:53;99935.28;;;8.53;71.46
12781;BME280;6454;43.304;24.344;2024-03-29T01:35:19;99938.41;;;8.32;70.43
12781;BME280;6454;43.304;24.344;2024-03-29T01:37:44;99941.97;;;8.33;71.75
12781;BME280;6454;43.304;24.344;2024-03-29T01:40:10;99949.88;;;8.34;70.16
12781;BME280;6454;43.304;24.344;2024-03-29T01:42:35;99951.88;;;8.29;71.88
12781;BME280;6454;43.304;24.344;2024-03-29T01:45:01;99958.75;;;8.26;71.15
12781;BME280;6454;43.304;24.344;2024-03-29T01:47:26;99943.13;;;8.13;71.08
12781;BME280;6454;43.304;24.344;2024-03-29T01:49:52;99958.75;;;8.13;71.27
12781;BME280;6454;43.304;24.344;2024-03-29T01:52:18;99942.31;;;7.99;70.35
12781;BME280;6454;43.304;24.344;2024-03-29T01:54:45;99951.22;;;7.91;72.58
12781;BME280;6454;43.304;24.344;2024-03-29T01:57:12;99969.84;;;7.89;71.02
12781;BME280;6454;43.304;24.344;2024-03-29T01:59:40;99979.59;;;7.95;72.33
12781;BME280;6454;43.304;24.344;2024-03-29T02:02:08;99969.84;;;7.89;71.76
12781;BME280;6454;43.304;24.344;2024-03-29T02:04:35;99993.16;;;7.87;71.24
12781;BME280;6454;43.304;24.344;2024-03-29T02:07:01;99963.53;;;7.75;71.73
12781;BME280;6454;43.304;24.344;2024-03-29T02:09:29;99992.53;;;7.76;72.72
12781;BME280;6454;43.304;24.344;2024-03-29T02:11:54;100002.88;;;7.79;72.17
12781;BME280;6454;43.304;24.344;2024-03-29T02:14:19;99998.16;;;7.66;72.84
12781;BME280;6454;43.304;24.344;2024-03-29T02:16:47;99993.81;;;7.65;71.46
12781;BME280;6454;43.304;24.344;2024-03-29T02:19:14;99996.47;;;7.51;72.37
12781;BME280;6454;43.304;24.344;2024-03-29T02:21:43;99989.00;;;7.57;72.16
12781;BME280;6454;43.304;24.344;2024-03-29T02:24:12;100007.56;;;7.60;71.61
12781;BME280;6454;43.304;24.344;2024-03-29T02:26:41;100006.22;;;7.57;72.15
12781;BME280;6454;43.304;24.344;2024-03-29T02:29:08;100009.94;;;7.48;71.78
12781;BME280;6454;43.304;24.344;2024-03-29T02:31:38;100020.94;;;7.43;72.18
12781;BME280;6454;43.304;24.344;2024-03-29T02:34:03;100022.13;;;7.37;71.91
12781;BME280;6454;43.304;24.344;2024-03-29T02:36:28;100017.28;;;7.34;73.35
12781;BME280;6454;43.304;24.344;2024-03-29T02:38:54;100033.75;;;7.47;71.17
12781;BME280;6454;43.304;24.344;2024-03-29T02:41:19;100043.84;;;7.47;72.88
12781;BME280;6454;43.304;24.344;2024-03-29T02:43:45;100033.66;;;7.34;72.30
12781;BME280;6454;43.304;24.344;2024-03-29T02:46:10;100036.91;;;7.36;72.78
12781;BME280;6454;43.304;24.344;2024-03-29T02:48:36;100044.66;;;7.29;71.93
12781;BME280;6454;43.304;24.344;2024-03-29T02:51:01;100040.16;;;7.19;72.54
12781;BME280;6454;43.304;24.344;2024-03-29T02:53:27;100029.06;;;7.10;72.90
12781;BME280;6454;43.304;24.344;2024-03-29T02:55:52;100045.75;;;7.09;72.20
12781;BME280;6454;43.304;24.344;2024-03-29T02:58:18;100040.13;;;7.00;72.28
12781;BME280;6454;43.304;24.344;2024-03-29T03:00:43;100054.47;;;7.11;73.50
12781;BME280;6454;43.304;24.344;2024-03-29T03:03:08;100043.16;;;6.99;73.17
12781;BME280;6454;43.304;24.344;2024-03-29T03:05:34;100029.88;;;6.92;72.23
12781;BME280;6454;43.304;24.344;2024-03-29T03:07:59;100051.06;;;7.00;72.37
12781;BME280;6454;43.304;24.344;2024-03-29T03:10:47;100045.13;;;6.93;73.75
12781;BME280;6454;43.304;24.344;2024-03-29T03:13:21;100051.50;;;7.07;72.23
12781;BME280;6454;43.304;24.344;2024-03-29T03:15:47;100065.34;;;7.16;72.22
12781;BME280;6454;43.304;24.344;2024-03-29T03:18:12;100074.88;;;7.18;72.11
12781;BME280;6454;43.304;24.344;2024-03-29T03:20:38;100054.31;;;7.02;73.54
12781;BME280;6454;43.304;24.344;2024-03-29T03:23:05;100054.31;;;7.02;72.88
12781;BME280;6454;43.304;24.344;2024-03-29T03:25:30;100067.31;;;7.10;73.63
12781;BME280;6454;43.304;24.344;2024-03-29T03:27:56;100078.31;;;7.05;72.07
12781;BME280;6454;43.304;24.344;2024-03-29T03:30:21;100078.59;;;7.04;72.26
12781;BME280;6454;43.304;24.344;2024-03-29T03:32:50;100067.13;;;6.83;72.22
12781;BME280;6454;43.304;24.344;2024-03-29T03:35:16;100087.66;;;6.99;73.82
12781;BME280;6454;43.304;24.344;2024-03-29T03:37:41;100086.34;;;6.97;72.68
12781;BME280;6454;43.304;24.344;2024-03-29T03:40:07;100098.72;;;6.89;72.48
12781;BME280;6454;43.304;24.344;2024-03-29T03:42:33;100095.81;;;6.81;72.65
12781;BME280;6454;43.304;24.344;2024-03-29T03:44:58;100115.19;;;6.84;73.58
12781;BME280;6454;43.304;24.344;2024-03-29T03:47:24;100114.19;;;6.75;74.13
12781;BME280;6454;43.304;24.344;2024-03-29T03:49:49;100130.81;;;6.79;74.08
12781;BME280;6454;43.304;24.344;2024-03-29T03:52:15;100128.34;;;6.77;73.27
12781;BME280;6454;43.304;24.344;2024-03-29T03:54:40;100117.09;;;6.60;74.48
12781;BME280;6454;43.304;24.344;2024-03-29T03:57:06;100104.06;;;6.52;73.48
12781;BME280;6454;43.304;24.344;2024-03-29T03:59:34;100126.31;;;6.64;74.02
12781;BME280;6454;43.304;24.344;2024-03-29T04:01:59;100127.69;;;6.62;74.88
12781;BME280;6454;43.304;24.344;2024-03-29T04:04:25;100134.56;;;6.59;75.01
12781;BME280;6454;43.304;24.344;2024-03-29T04:06:51;100160.09;;;6.73;74.63
12781;BME280;6454;43.304;24.344;2024-03-29T04:09:17;100151.41;;;6.66;74.01
12781;BME280;6454;43.304;24.344;2024-03-29T04:11:44;100171.69;;;6.60;73.52
12781;BME280;6454;43.304;24.344;2024-03-29T04:14:09;100173.91;;;6.53;74.38
12781;BME280;6454;43.304;24.344;2024-03-29T04:16:35;100166.25;;;6.55;74.43
12781;BME280;6454;43.304;24.344;2024-03-29T04:19:00;100175.50;;;6.59;74.86
12781;BME280;6454;43.304;24.344;2024-03-29T04:21:26;100169.56;;;6.52;74.55
12781;BME280;6454;43.304;24.344;2024-03-29T04:23:51;100186.94;;;6.61;74.63
12781;BME280;6454;43.304;24.344;2024-03-29T04:26:18;100174.97;;;6.57;74.53
12781;BME280;6454;43.304;24.344;2024-03-29T04:28:44;100174.94;;;6.62;73.63
12781;BME280;6454;43.304;24.344;2024-03-29T04:31:09;100190.75;;;6.65;74.12
12781;BME280;6454;43.304;24.344;2024-03-29T04:33:36;100191.84;;;6.64;74.39
12781;BME280;6454;43.304;24.344;2024-03-29T04:36:03;100193.53;;;6.60;73.69
12781;BME280;6454;43.304;24.344;2024-03-29T04:38:30;100172.81;;;6.54;73.78
12781;BME280;6454;43.304;24.344;2024-03-29T04:40:57;100213.06;;;6.72;74.17
12781;BME280;6454;43.304;24.344;2024-03-29T04:43:26;100224.53;;;6.69;74.47
12781;BME280;6454;43.304;24.344;2024-03-29T04:46:07;100204.44;;;6.60;75.16
12781;BME280;6454;43.304;24.344;2024-03-29T04:48:35;100215.78;;;6.72;74.97
12781;BME280;6454;43.304;24.344;2024-03-29T04:51:00;100235.41;;;6.79;74.61
12781;BME280;6454;43.304;24.344;2024-03-29T04:53:26;100240.25;;;6.82;75.54
12781;BME280;6454;43.304;24.344;2024-03-29T04:55:57;100223.94;;;6.77;75.30
12781;BME280;6454;43.304;24.344;2024-03-29T04:58:26;100226.91;;;6.81;75.70
12781;BME280;6454;43.304;24.344;2024-03-29T05:00:54;100239.47;;;6.82;75.41
12781;BME280;6454;43.304;24.344;2024-03-29T05:03:20;100241.84;;;6.88;74.92
12781;BME280;6454;43.304;24.344;2024-03-29T05:05:46;100251.59;;;6.99;74.73
12781;BME280;6454;43.304;24.344;2024-03-29T05:08:12;100254.03;;;7.01;76.09
12781;BME280;6454;43.304;24.344;2024-03-29T05:10:41;100242.50;;;7.04;75.89
12781;BME280;6454;43.304;24.344;2024-03-29T05:13:07;100257.69;;;7.20;75.59
12781;BME280;6454;43.304;24.344;2024-03-29T05:15:33;100253.00;;;7.20;76.54
12781;BME280;6454;43.304;24.344;2024-03-29T05:17:59;100259.16;;;7.31;77.08
12781;BME280;6454;43.304;24.344;2024-03-29T05:20:24;100272.31;;;7.53;75.40
12781;BME280;6454;43.304;24.344;2024-03-29T05:22:49;100258.03;;;7.61;75.41
12781;BME280;6454;43.304;24.344;2024-03-29T05:25:15;100268.13;;;7.84;77.90
12781;BME280;6454;43.304;24.344;2024-03-29T05:27:41;100284.06;;;8.01;76.54
12781;BME280;6454;43.304;24.344;2024-03-29T05:30:07;100290.63;;;8.18;77.74
12781;BME280;6454;43.304;24.344;2024-03-29T05:32:35;100294.91;;;8.48;76.52
12781;BME280;6454;43.304;24.344;2024-03-29T05:35:00;100280.16;;;8.63;75.63
12781;BME280;6454;43.304;24.344;2024-03-29T05:37:25;100286.84;;;8.89;75.23
12781;BME280;6454;43.304;24.344;2024-03-29T05:39:51;100289.66;;;9.16;74.84
12781;BME280;6454;43.304;24.344;2024-03-29T05:42:25;100286.25;;;9.38;74.08
12781;BME280;6454;43.304;24.344;2024-03-29T05:44:51;100281.00;;;9.69;72.91
12781;BME280;6454;43.304;24.344;2024-03-29T05:47:16;100276.69;;;10.03;72.70
12781;BME280;6454;43.304;24.344;2024-03-29T05:49:42;100288.75;;;10.43;71.38
12781;BME280;6454;43.304;24.344;2024-03-29T05:52:07;100299.34;;;10.94;67.85
12781;BME280;6454;43.304;24.344;2024-03-29T05:54:33;100299.41;;;11.25;66.15
12781;BME280;6454;43.304;24.344;2024-03-29T05:56:59;100288.22;;;11.52;66.40
12781;BME280;6454;43.304;24.344;2024-03-29T05:59:24;100302.28;;;11.81;63.71
12781;BME280;6454;43.304;24.344;2024-03-29T06:01:49;100314.03;;;12.13;68.38
12781;BME280;6454;43.304;24.344;2024-03-29T06:04:15;100297.84;;;12.20;66.85
12781;BME280;6454;43.304;24.344;2024-03-29T06:06:44;100305.03;;;12.46;64.28
12781;BME280;6454;43.304;24.344;2024-03-29T06:09:10;100296.91;;;12.67;62.64
12781;BME280;6454;43.304;24.344;2024-03-29T06:11:35;100283.94;;;12.93;62.68
12781;BME280;6454;43.304;24.344;2024-03-29T06:14:01;100288.94;;;13.26;59.58
12781;BME280;6454;43.304;24.344;2024-03-29T06:16:28;100297.94;;;13.52;58.28
12781;BME280;6454;43.304;24.344;2024-03-29T06:19:11;100297.63;;;13.91;57.48
12781;BME280;6454;43.304;24.344;2024-03-29T06:21:38;100295.28;;;14.02;56.36
12781;BME280;6454;43.304;24.344;2024-03-29T06:24:11;100297.16;;;14.18;56.26
12781;BME280;6454;43.304;24.344;2024-03-29T06:26:42;100314.88;;;14.47;55.36
12781;BME280;6454;43.304;24.344;2024-03-29T06:29:08;100308.34;;;14.72;54.52
12781;BME280;6454;43.304;24.344;2024-03-29T06:31:36;100313.53;;;14.94;54.18
12781;BME280;6454;43.304;24.344;2024-03-29T06:34:02;100318.41;;;15.09;53.31
12781;BME280;6454;43.304;24.344;2024-03-29T06:36:28;100315.03;;;15.24;52.52
12781;BME280;6454;43.304;24.344;2024-03-29T06:38:55;100317.41;;;15.46;51.81
12781;BME280;6454;43.304;24.344;2024-03-29T06:41:21;100313.66;;;15.75;51.63
12781;BME280;6454;43.304;24.344;2024-03-29T06:43:46;100318.19;;;15.92;52.52
12781;BME280;6454;43.304;24.344;2024-03-29T06:46:13;100301.56;;;16.16;50.25
12781;BME280;6454;43.304;24.344;2024-03-29T06:48:39;100322.34;;;16.22;50.64
12781;BME280;6454;43.304;24.344;2024-03-29T06:51:05;100315.19;;;16.33;49.96
12781;BME280;6454;43.304;24.344;2024-03-29T06:53:30;100319.31;;;16.51;48.86
12781;BME280;6454;43.304;24.344;2024-03-29T06:55:56;100322.50;;;16.78;47.92
12781;BME280;6454;43.304;24.344;2024-03-29T06:58:25;100319.59;;;16.86;46.76
12781;BME280;6454;43.304;24.344;2024-03-29T07:00:50;100325.06;;;17.10;45.80
12781;BME280;6454;43.304;24.344;2024-03-29T07:03:17;100310.84;;;17.12;46.17
12781;BME280;6454;43.304;24.344;2024-03-29T07:05:46;100325.94;;;17.42;44.60
12781;BME280;6454;43.304;24.344;2024-03-29T07:08:12;100313.72;;;17.59;44.72
12781;BME280;6454;43.304;24.344;2024-03-29T07:10:38;100323.78;;;17.63;46.33
12781;BME280;6454;43.304;24.344;2024-03-29T07:13:04;100322.59;;;17.64;44.38
12781;BME280;6454;43.304;24.344;2024-03-29T07:15:29;100334.25;;;17.85;43.86
12781;BME280;6454;43.304;24.344;2024-03-29T07:17:55;100341.19;;;18.07;44.11
12781;BME280;6454;43.304;24.344;2024-03-29T07:20:21;100338.94;;;18.28;44.25
12781;BME280;6454;43.304;24.344;2024-03-29T07:22:47;100323.63;;;18.38;41.24
12781;BME280;6454;43.304;24.344;2024-03-29T07:25:12;100334.97;;;18.45;41.82
12781;BME280;6454;43.304;24.344;2024-03-29T07:27:38;100324.16;;;18.59;41.96
12781;BME280;6454;43.304;24.344;2024-03-29T07:30:04;100323.53;;;18.66;41.39
12781;BME280;6454;43.304;24.344;2024-03-29T07:32:30;100324.13;;;18.75;40.70
12781;BME280;6454;43.304;24.344;2024-03-29T07:34:56;100347.97;;;18.91;41.00
12781;BME280;6454;43.304;24.344;2024-03-29T07:37:24;100332.41;;;18.90;40.52
12781;BME280;6454;43.304;24.344;2024-03-29T07:39:49;100341.13;;;19.08;41.60
12781;BME280;6454;43.304;24.344;2024-03-29T07:42:15;100321.72;;;19.12;41.69
12781;BME280;6454;43.304;24.344;2024-03-29T07:44:40;100332.75;;;19.27;41.00
12781;BME280;6454;43.304;24.344;2024-03-29T07:47:06;100343.34;;;19.37;42.48
12781;BME280;6454;43.304;24.344;2024-03-29T07:49:31;100346.78;;;19.50;40.22
12781;BME280;6454;43.304;24.344;2024-03-29T07:51:57;100345.31;;;19.56;40.65
12781;BME280;6454;43.304;24.344;2024-03-29T07:54:22;100350.66;;;19.65;41.05
12781;BME280;6454;43.304;24.344;2024-03-29T07:56:47;100353.56;;;19.72;40.11
12781;BME280;6454;43.304;24.344;2024-03-29T07:59:13;100370.63;;;19.89;38.00
12781;BME280;6454;43.304;24.344;2024-03-29T08:01:38;100365.06;;;19.89;37.92
12781;BME280;6454;43.304;24.344;2024-03-29T08:04:06;100361.50;;;19.92;37.54
12781;BME280;6454;43.304;24.344;2024-03-29T08:06:32;100366.91;;;20.04;38.30
12781;BME280;6454;43.304;24.344;2024-03-29T08:08:58;100368.31;;;20.17;37.72
12781;BME280;6454;43.304;24.344;2024-03-29T08:11:23;100369.28;;;20.25;38.15
12781;BME280;6454;43.304;24.344;2024-03-29T08:13:48;100374.66;;;20.37;38.34
12781;BME280;6454;43.304;24.344;2024-03-29T08:16:14;100353.50;;;20.36;37.89
12781;BME280;6454;43.304;24.344;2024-03-29T08:18:42;100362.03;;;20.47;37.09
12781;BME280;6454;43.304;24.344;2024-03-29T08:21:07;100364.63;;;20.59;38.60
12781;BME280;6454;43.304;24.344;2024-03-29T08:23:40;100353.53;;;20.62;36.57
12781;BME280;6454;43.304;24.344;2024-03-29T08:26:06;100362.81;;;20.70;36.94
12781;BME280;6454;43.304;24.344;2024-03-29T08:28:32;100369.19;;;20.70;37.50
12781;BME280;6454;43.304;24.344;2024-03-29T08:31:03;100349.59;;;20.67;36.82
12781;BME280;6454;43.304;24.344;2024-03-29T08:33:28;100359.25;;;20.73;37.47
12781;BME280;6454;43.304;24.344;2024-03-29T08:35:55;100348.25;;;20.84;37.73
12781;BME280;6454;43.304;24.344;2024-03-29T08:38:22;100366.75;;;20.95;37.27
12781;BME280;6454;43.304;24.344;2024-03-29T08:40:48;100359.50;;;20.91;36.89
12781;BME280;6454;43.304;24.344;2024-03-29T08:43:15;100375.19;;;20.99;35.48
12781;BME280;6454;43.304;24.344;2024-03-29T08:45:46;100366.03;;;21.02;36.89
12781;BME280;6454;43.304;24.344;2024-03-29T08:48:11;100346.41;;;20.98;37.13
12781;BME280;6454;43.304;24.344;2024-03-29T08:50:37;100368.66;;;21.17;34.67
12781;BME280;6454;43.304;24.344;2024-03-29T08:53:03;100367.09;;;21.20;34.70
12781;BME280;6454;43.304;24.344;2024-03-29T08:55:32;100367.16;;;21.23;36.09
12781;BME280;6454;43.304;24.344;2024-03-29T08:57:59;100351.56;;;21.22;36.84
12781;BME280;6454;43.304;24.344;2024-03-29T09:00:27;100346.00;;;21.22;35.01
12781;BME280;6454;43.304;24.344;2024-03-29T09:02:55;100356.94;;;21.38;35.49
12781;BME280;6454;43.304;24.344;2024-03-29T09:05:21;100348.16;;;21.40;35.63
12781;BME280;6454;43.304;24.344;2024-03-29T09:07:50;100343.44;;;21.44;34.49
12781;BME280;6454;43.304;24.344;2024-03-29T09:10:16;100349.84;;;21.44;34.29
12781;BME280;6454;43.304;24.344;2024-03-29T09:12:43;100334.75;;;21.52;34.45
12781;BME280;6454;43.304;24.344;2024-03-29T09:15:08;100341.63;;;21.62;35.26
12781;BME280;6454;43.304;24.344;2024-03-29T09:17:39;100324.44;;;21.60;33.75
12781;BME280;6454;43.304;24.344;2024-03-29T09:20:06;100332.97;;;21.74;35.29
12781;BME280;6454;43.304;24.344;2024-03-29T09:22:31;100324.59;;;21.74;33.21
12781;BME280;6454;43.304;24.344;2024-03-29T09:24:57;100325.00;;;21.76;33.57
12781;BME280;6454;43.304;24.344;2024-03-29T09:27:22;100347.97;;;21.92;33.75
12781;BME280;6454;43.304;24.344;2024-03-29T09:29:48;100349.63;;;22.00;35.41
12781;BME280;6454;43.304;24.344;2024-03-29T09:32:16;100320.75;;;21.89;34.10
12781;BME280;6454;43.304;24.344;2024-03-29T09:34:46;100336.84;;;22.03;33.70
12781;BME280;6454;43.304;24.344;2024-03-29T09:37:11;100336.00;;;21.95;33.45
12781;BME280;6454;43.304;24.344;2024-03-29T09:39:37;100335.59;;;21.97;33.47
12781;BME280;6454;43.304;24.344;2024-03-29T09:42:03;100332.03;;;22.00;33.85
12781;BME280;6454;43.304;24.344;2024-03-29T09:44:32;100332.09;;;22.07;33.05
12781;BME280;6454;43.304;24.344;2024-03-29T09:47:02;100324.19;;;22.19;34.81
12781;BME280;6454;43.304;24.344;2024-03-29T09:49:29;100315.44;;;22.24;32.73
12781;BME280;6454;43.304;24.344;2024-03-29T09:52:01;100324.31;;;22.33;33.39
12781;BME280;6454;43.304;24.344;2024-03-29T09:54:30;100325.53;;;22.36;31.57
12781;BME280;6454;43.304;24.344;2024-03-29T09:56:57;100301.03;;;22.22;32.75
12781;BME280;6454;43.304;24.344;2024-03-29T09:59:23;100311.06;;;22.27;32.78
12781;BME280;6454;43.304;24.344;2024-03-29T10:01:50;100312.69;;;22.31;32.30
12781;BME280;6454;43.304;24.344;2024-03-29T10:04:21;100303.84;;;22.26;32.92
12781;BME280;6454;43.304;24.344;2024-03-29T10:06:48;100301.91;;;22.37;32.80
12781;BME280;6454;43.304;24.344;2024-03-29T10:09:21;100299.97;;;22.41;33.42
12781;BME280;6454;43.304;24.344;2024-03-29T10:11:47;100301.22;;;22.50;31.91
12781;BME280;6454;43.304;24.344;2024-03-29T10:14:14;100305.63;;;22.51;32.43
12781;BME280;6454;43.304;24.344;2024-03-29T10:16:40;100313.34;;;22.65;31.83
12781;BME280;6454;43.304;24.344;2024-03-29T10:19:07;100320.13;;;22.64;32.13
12781;BME280;6454;43.304;24.344;2024-03-29T10:21:33;100323.66;;;22.54;32.71
12781;BME280;6454;43.304;24.344;2024-03-29T10:26:25;100318.88;;;22.62;32.69
12781;BME280;6454;43.304;24.344;2024-03-29T10:28:51;100331.78;;;22.66;32.15
12781;BME280;6454;43.304;24.344;2024-03-29T10:31:17;100327.81;;;22.78;31.62
12781;BME280;6454;43.304;24.344;2024-03-29T10:33:43;100314.63;;;22.82;31.77
12781;BME280;6454;43.304;24.344;2024-03-29T10:36:13;100325.88;;;22.85;31.91
12781;BME280;6454;43.304;24.344;2024-03-29T10:38:40;100315.78;;;22.74;31.29
12781;BME280;6454;43.304;24.344;2024-03-29T10:41:06;100307.78;;;22.76;31.69
12781;BME280;6454;43.304;24.344;2024-03-29T10:43:33;100314.25;;;22.87;31.55
12781;BME280;6454;43.304;24.344;2024-03-29T10:46:03;100296.25;;;22.88;30.76
12781;BME280;6454;43.304;24.344;2024-03-29T10:48:30;100305.09;;;22.93;31.68
12781;BME280;6454;43.304;24.344;2024-03-29T10:50:58;100294.25;;;22.92;31.03
12781;BME280;6454;43.304;24.344;2024-03-29T10:53:25;100292.66;;;22.94;29.73
12781;BME280;6454;43.304;24.344;2024-03-29T10:55:54;100290.28;;;23.00;31.20
12781;BME280;6454;43.304;24.344;2024-03-29T10:58:21;100284.72;;;23.07;31.28
12781;BME280;6454;43.304;24.344;2024-03-29T11:00:53;100292.75;;;23.19;31.23
12781;BME280;6454;43.304;24.344;2024-03-29T11:03:48;100289.16;;;23.15;30.81
12781;BME280;6454;43.304;24.344;2024-03-29T11:06:15;100285.56;;;23.18;30.25
12781;BME280;6454;43.304;24.344;2024-03-29T11:08:45;100282.28;;;22.98;29.32
12781;BME280;6454;43.304;24.344;2024-03-29T11:11:13;100289.09;;;23.01;31.04
12781;BME280;6454;43.304;24.344;2024-03-29T11:13:49;100282.34;;;23.16;31.05
12781;BME280;6454;43.304;24.344;2024-03-29T11:16:17;100272.75;;;23.24;31.69
12781;BME280;6454;43.304;24.344;2024-03-29T11:18:44;100262.72;;;23.27;30.03
12781;BME280;6454;43.304;24.344;2024-03-29T11:21:10;100269.22;;;23.38;30.43
12781;BME280;6454;43.304;24.344;2024-03-29T11:23:37;100272.84;;;23.42;31.30
12781;BME280;6454;43.304;24.344;2024-03-29T11:26:04;100278.47;;;23.45;31.23
12781;BME280;6454;43.304;24.344;2024-03-29T11:28:33;100272.03;;;23.48;31.47
12781;BME280;6454;43.304;24.344;2024-03-29T11:31:01;100258.41;;;23.54;31.25
12781;BME280;6454;43.304;24.344;2024-03-29T11:36:15;100248.75;;;23.34;30.72
12781;BME280;6454;43.304;24.344;2024-03-29T11:38:42;100258.03;;;23.55;30.65
12781;BME280;6454;43.304;24.344;2024-03-29T11:41:16;100242.78;;;23.49;31.05
12781;BME280;6454;43.304;24.344;2024-03-29T11:43:42;100255.63;;;23.57;29.03
12781;BME280;6454;43.304;24.344;2024-03-29T11:46:12;100255.22;;;23.73;29.20
12781;BME280;6454;43.304;24.344;2024-03-29T11:48:38;100242.41;;;23.68;29.97
12781;BME280;6454;43.304;24.344;2024-03-29T11:51:06;100249.22;;;23.67;29.98
12781;BME280;6454;43.304;24.344;2024-03-29T11:53:32;100251.63;;;23.83;30.78
12781;BME280;6454;43.304;24.344;2024-03-29T11:56:02;100246.81;;;23.91;29.31
12781;BME280;6454;43.304;24.344;2024-03-29T11:58:30;100242.41;;;23.90;29.84
12781;BME280;6454;43.304;24.344;2024-03-29T12:00:58;100249.22;;;23.96;29.21
12781;BME280;6454;43.304;24.344;2024-03-29T12:03:30;100239.59;;;23.83;29.74
12781;BME280;6454;43.304;24.344;2024-03-29T12:05:57;100241.59;;;23.96;29.69
12781;BME280;6454;43.304;24.344;2024-03-29T12:08:30;100235.97;;;23.79;28.97
12781;BME280;6454;43.304;24.344;2024-03-29T12:11:00;100228.78;;;23.88;28.80
12781;BME280;6454;43.304;24.344;2024-03-29T12:13:26;100225.16;;;23.91;29.70
12781;BME280;6454;43.304;24.344;2024-03-29T12:15:52;100231.97;;;23.94;28.34
12781;BME280;6454;43.304;24.344;2024-03-29T12:18:19;100226.75;;;23.96;29.03
12781;BME280;6454;43.304;24.344;2024-03-29T12:20:45;100231.56;;;24.06;29.89
12781;BME280;6454;43.304;24.344;2024-03-29T12:23:13;100222.34;;;24.02;29.69
12781;BME280;6454;43.304;24.344;2024-03-29T12:25:39;100224.34;;;23.98;29.92
12781;BME280;6454;43.304;24.344;2024-03-29T12:28:05;100231.97;;;24.01;30.34
12781;BME280;6454;43.304;24.344;2024-03-29T12:30:32;100212.69;;;24.03;29.72
12781;BME280;6454;43.304;24.344;2024-03-29T12:35:32;100226.38;;;24.18;29.77
12781;BME280;6454;43.304;24.344;2024-03-29T12:37:59;100213.53;;;24.14;29.29
12781;BME280;6454;43.304;24.344;2024-03-29T12:40:26;100217.94;;;24.18;29.91
12781;BME280;6454;43.304;24.344;2024-03-29T12:42:53;100222.72;;;24.25;30.42
12781;BME280;6454;43.304;24.344;2024-03-29T12:45:19;100227.16;;;24.19;29.50
12781;BME280;6454;43.304;24.344;2024-03-29T12:47:46;100200.28;;;24.00;29.96
12781;BME280;6454;43.304;24.344;2024-03-29T12:50:27;100212.69;;;24.06;30.00
12781;BME280;6454;43.304;24.344;2024-03-29T12:52:57;100215.09;;;24.22;29.94
12781;BME280;6454;43.304;24.344;2024-03-29T12:55:24;100224.31;;;24.33;29.49
12781;BME280;6454;43.304;24.344;2024-03-29T12:57:50;100203.09;;;24.11;28.14
12781;BME280;6454;43.304;24.344;2024-03-29T13:00:21;100213.50;;;24.24;28.90